Time;durP1;ratioP1;P1;durP2;ratioP2;P2;SDS_P1;SDS_P2;PMS_P1;PMS_P2;Temp;Humidity;BMP_temperature;BMP_pressure;BME280_temperature;BME280_humidity;BME280_pressure;Samples;Min_cycle;Max_cycle;Signal;HPM_P1;HPM_P2
2023/08/22 00:00:42;;;;;;;10.70;2.90;;;;;;;14.65;100.00;100336.05;109024;1258;60148;-59
2023/08/22 00:03:33;;;;;;;10.30;2.80;;;;;;;14.63;100.00;100335.52;109013;1259;72732;-59
2023/08/22 00:06:20;;;;;;;11.10;3.20;;;;;;;14.62;100.00;100334.33;109024;1259;67822;-59
2023/08/22 00:09:08;;;;;;;9.30;2.70;;;;;;;14.60;100.00;100329.32;109013;1259;73801;-59
2023/08/22 00:11:54;;;;;;;10.70;2.80;;;;;;;14.58;100.00;100327.88;108976;1258;59587;-60
2023/08/22 00:14:41;;;;;;;10.30;2.50;;;;;;;14.57;100.00;100331.05;108941;1260;61605;-60
2023/08/22 00:17:27;;;;;;;8.60;2.60;;;;;;;14.55;100.00;100329.80;108997;1259;72749;-60
2023/08/22 00:20:13;;;;;;;9.80;2.90;;;;;;;14.53;100.00;100329.93;109054;1262;68825;-58
2023/08/22 00:23:00;;;;;;;7.30;2.50;;;;;;;14.52;100.00;100327.58;109029;1260;72181;-58
2023/08/22 00:25:46;;;;;;;10.20;2.60;;;;;;;14.51;100.00;100327.34;109045;1259;60368;-59
2023/08/22 00:28:32;;;;;;;10.30;2.90;;;;;;;14.48;100.00;100322.15;108991;1259;61370;-58
2023/08/22 00:31:18;;;;;;;9.70;3.00;;;;;;;14.47;100.00;100326.95;109003;1258;72959;-59
2023/08/22 00:34:04;;;;;;;12.50;3.20;;;;;;;14.45;100.00;100325.34;109041;1260;67713;-58
2023/08/22 00:36:50;;;;;;;13.00;3.50;;;;;;;14.44;100.00;100320.45;108969;1259;73521;-59
2023/08/22 00:39:36;;;;;;;11.40;3.60;;;;;;;14.43;100.00;100320.17;108955;1259;60515;-59
2023/08/22 00:42:23;;;;;;;10.60;3.10;;;;;;;14.40;100.00;100323.04;109036;1258;60362;-58
2023/08/22 00:45:09;;;;;;;12.60;3.50;;;;;;;14.38;100.00;100321.80;109020;1259;72999;-59
2023/08/22 00:47:56;;;;;;;9.50;3.10;;;;;;;14.36;100.00;100316.84;109024;1259;68872;-59
2023/08/22 00:50:42;;;;;;;10.00;3.40;;;;;;;14.34;100.00;100325.97;108995;1260;72882;-59
2023/08/22 00:53:28;;;;;;;9.00;3.00;;;;;;;14.33;100.00;100324.27;109055;1259;59360;-59
2023/08/22 00:56:15;;;;;;;11.70;3.30;;;;;;;14.31;100.00;100332.23;109029;1258;61309;-59
2023/08/22 00:59:03;;;;;;;8.90;3.30;;;;;;;14.30;100.00;100338.27;109037;1258;73042;-60
2023/08/22 01:01:50;;;;;;;10.70;3.70;;;;;;;14.24;100.00;100331.05;109077;1259;68748;-60
2023/08/22 01:04:36;;;;;;;11.10;3.60;;;;;;;14.30;100.00;100335.21;109030;1259;71774;-59
2023/08/22 01:07:35;;;;;;;13.30;3.60;;;;;;;14.32;100.00;100336.31;109005;1261;59390;-60
2023/08/22 01:10:33;;;;;;;11.80;4.40;;;;;;;14.35;100.00;100331.90;108933;1263;59991;-59
2023/08/22 01:13:24;;;;;;;10.70;4.60;;;;;;;14.41;100.00;100328.73;109010;1260;72896;-59
2023/08/22 01:16:11;;;;;;;11.00;4.20;;;;;;;14.46;100.00;100323.48;109001;1260;67337;-61
2023/08/22 01:19:01;;;;;;;11.60;4.30;;;;;;;14.51;100.00;100323.39;109005;1260;73719;-59
2023/08/22 01:21:50;;;;;;;13.50;4.40;;;;;;;14.57;100.00;100326.77;109022;1260;59524;-58
2023/08/22 01:24:36;;;;;;;12.30;4.60;;;;;;;14.65;100.00;100329.42;109052;1259;61443;-59
2023/08/22 01:27:31;;;;;;;14.50;4.90;;;;;;;14.72;100.00;100332.77;109042;1260;73814;-59
2023/08/22 01:30:57;;;;;;;12.40;4.30;;;;;;;14.77;100.00;100335.63;109025;1260;68748;-59
2023/08/22 01:33:52;;;;;;;13.70;4.60;;;;;;;14.83;100.00;100333.87;109054;1258;73444;-58
2023/08/22 01:36:39;;;;;;;12.50;4.30;;;;;;;14.88;100.00;100342.58;109000;1260;60609;-58
2023/08/22 01:39:28;;;;;;;11.80;4.50;;;;;;;14.92;100.00;100347.20;109035;1260;60478;-59
2023/08/22 01:42:15;;;;;;;12.60;4.80;;;;;;;14.96;100.00;100340.23;109046;1258;73335;-59
2023/08/22 01:45:02;;;;;;;14.60;5.00;;;;;;;15.00;100.00;100348.06;109097;1257;67865;-61
2023/08/22 01:47:49;;;;;;;9.80;3.80;;;;;;;15.03;100.00;100342.66;108985;1259;72511;-59
2023/08/22 01:50:35;;;;;;;11.40;4.90;;;;;;;15.03;100.00;100340.48;109050;1259;60668;-61
2023/08/22 01:53:22;;;;;;;15.00;4.60;;;;;;;15.05;100.00;100337.31;109055;1260;60172;-62
2023/08/22 01:56:08;;;;;;;13.20;4.80;;;;;;;15.07;100.00;100335.95;109101;1257;74115;-60
2023/08/22 01:58:54;;;;;;;14.50;5.20;;;;;;;15.09;100.00;100336.30;109132;1257;68006;-60
2023/08/22 02:01:40;;;;;;;11.60;4.50;;;;;;;15.10;100.00;100343.17;109089;1257;71225;-59
2023/08/22 02:04:27;;;;;;;12.80;4.30;;;;;;;15.12;100.00;100342.14;109052;1257;61090;-60
2023/08/22 02:07:13;;;;;;;14.30;4.70;;;;;;;15.12;100.00;100340.16;109070;1257;59187;-60
2023/08/22 02:09:59;;;;;;;14.70;4.70;;;;;;;15.13;100.00;100337.20;109099;1257;74109;-62
2023/08/22 02:12:46;;;;;;;11.60;4.50;;;;;;;15.14;100.00;100336.45;109116;1257;66695;-59
2023/08/22 02:15:32;;;;;;;10.90;4.40;;;;;;;15.12;100.00;100335.14;109041;1257;72396;-60
2023/08/22 02:18:18;;;;;;;12.00;4.10;;;;;;;15.14;100.00;100332.67;109104;1257;59727;-59
2023/08/22 02:21:05;;;;;;;10.70;4.10;;;;;;;15.14;100.00;100321.92;109110;1258;59392;-60
2023/08/22 02:23:51;;;;;;;11.40;4.30;;;;;;;15.14;100.00;100318.88;109122;1257;72886;-59
2023/08/22 02:26:41;;;;;;;14.80;4.30;;;;;;;15.14;100.00;100318.70;109095;1257;69068;-60
2023/08/22 02:29:27;;;;;;;13.70;4.80;;;;;;;15.16;100.00;100319.11;109067;1257;73494;-58
2023/08/22 02:32:13;;;;;;;13.90;5.10;;;;;;;15.14;100.00;100311.43;109100;1257;60487;-58
2023/08/22 02:35:00;;;;;;;11.70;4.70;;;;;;;15.16;100.00;100315.12;109103;1257;60090;-58
2023/08/22 02:37:47;;;;;;;11.70;4.00;;;;;;;15.16;100.00;100314.60;109115;1257;72979;-60
2023/08/22 02:40:34;;;;;;;9.70;4.00;;;;;;;15.16;100.00;100315.50;109102;1257;68097;-58
2023/08/22 02:43:20;;;;;;;10.40;4.00;;;;;;;15.15;100.00;100316.98;109126;1257;73510;-60
2023/08/22 02:46:06;;;;;;;10.50;4.10;;;;;;;15.15;100.00;100317.04;109084;1257;60498;-59
2023/08/22 02:48:52;;;;;;;11.90;4.90;;;;;;;15.14;100.00;100315.36;109118;1257;61237;-58
2023/08/22 02:51:39;;;;;;;10.20;4.70;;;;;;;15.13;100.00;100311.89;109007;1260;72843;-58
2023/08/22 02:54:25;;;;;;;10.90;4.20;;;;;;;15.12;100.00;100305.55;109010;1259;66945;-58
2023/08/22 02:57:12;;;;;;;10.10;3.70;;;;;;;15.09;100.00;100295.77;109044;1260;72574;-59
2023/08/22 02:59:58;;;;;;;10.00;4.30;;;;;;;15.07;100.00;100295.09;108910;1260;60613;-59
2023/08/22 03:02:44;;;;;;;10.00;4.40;;;;;;;15.06;100.00;100292.66;109058;1258;61294;-58
2023/08/22 03:05:31;;;;;;;12.40;4.40;;;;;;;15.05;100.00;100285.80;108998;1259;73719;-59
2023/08/22 03:08:18;;;;;;;11.40;4.60;;;;;;;15.04;100.00;100288.81;109059;1258;68075;-58
2023/08/22 03:11:04;;;;;;;12.20;4.40;;;;;;;15.00;100.00;100293.92;109028;1258;72471;-59
2023/08/22 03:13:51;;;;;;;9.50;4.20;;;;;;;14.97;100.00;100299.88;109037;1260;60507;-59
2023/08/22 03:16:38;;;;;;;12.10;4.40;;;;;;;14.94;100.00;100304.09;109091;1259;60044;-59
2023/08/22 03:19:24;;;;;;;11.90;4.70;;;;;;;14.92;100.00;100304.50;109007;1263;74009;-59
2023/08/22 03:22:14;;;;;;;10.70;4.50;;;;;;;14.90;100.00;100302.70;109012;1259;66383;-59
2023/08/22 03:25:01;;;;;;;10.20;4.60;;;;;;;14.89;100.00;100299.91;109043;1258;72647;-59
2023/08/22 03:27:48;;;;;;;13.10;5.20;;;;;;;14.88;100.00;100297.34;108983;1258;60524;-59
2023/08/22 03:30:35;;;;;;;12.20;4.60;;;;;;;14.88;100.00;100297.04;109077;1257;59313;-59
2023/08/22 03:33:21;;;;;;;9.60;4.20;;;;;;;14.86;100.00;100299.33;109049;1257;74037;-58
2023/08/22 03:36:08;;;;;;;11.90;4.30;;;;;;;14.84;100.00;100295.39;108981;1258;68795;-59
2023/08/22 03:38:54;;;;;;;10.50;4.90;;;;;;;14.84;100.00;100302.92;108993;1259;73754;-59
2023/08/22 03:41:41;;;;;;;9.80;4.50;;;;;;;14.81;100.00;100294.58;109020;1259;60511;-59
2023/08/22 03:44:30;;;;;;;11.00;3.70;;;;;;;14.80;100.00;100290.06;109042;1259;60165;-59
2023/08/22 03:47:17;;;;;;;11.70;4.30;;;;;;;14.75;100.00;100295.17;109043;1259;72946;-60
2023/08/22 03:50:05;;;;;;;10.80;4.70;;;;;;;14.75;100.00;100301.44;109082;1257;66650;-60
2023/08/22 03:52:51;;;;;;;10.70;4.10;;;;;;;14.70;100.00;100289.88;109003;1258;72587;-59
2023/08/22 03:55:39;;;;;;;12.10;4.60;;;;;;;14.72;100.00;100293.66;109002;1259;59327;-59
2023/08/22 03:58:26;;;;;;;8.70;4.20;;;;;;;14.71;100.00;100292.11;108991;1258;61642;-58
2023/08/22 04:01:13;;;;;;;10.70;4.60;;;;;;;14.72;100.00;100298.88;109031;1259;74331;-60
2023/08/22 04:03:59;;;;;;;9.50;3.90;;;;;;;14.72;100.00;100303.70;108987;1258;67817;-60
2023/08/22 04:06:45;;;;;;;8.30;4.30;;;;;;;14.73;100.00;100307.66;109070;1258;73481;-59
2023/08/22 04:09:32;;;;;;;10.40;4.40;;;;;;;14.74;100.00;100314.71;108877;1258;59350;-60
2023/08/22 04:12:18;;;;;;;11.30;4.20;;;;;;;14.76;100.00;100313.48;108930;1258;61303;-60
2023/08/22 04:15:05;;;;;;;9.10;4.10;;;;;;;14.79;100.00;100310.55;108956;1258;73124;-61
2023/08/22 04:17:51;;;;;;;11.50;5.10;;;;;;;14.81;100.00;100307.81;108974;1259;68194;-59
2023/08/22 04:20:37;;;;;;;9.70;4.20;;;;;;;14.86;100.00;100309.92;109032;1257;72628;-59
2023/08/22 04:23:26;;;;;;;9.30;3.90;;;;;;;14.89;100.00;100310.46;109031;1258;58157;-59
2023/08/22 04:26:12;;;;;;;9.20;3.70;;;;;;;14.94;100.00;100312.38;109087;1257;60217;-60
2023/08/22 04:29:00;;;;;;;9.50;4.30;;;;;;;14.99;100.00;100313.48;109013;1257;74074;-59
2023/08/22 04:31:46;;;;;;;11.10;4.70;;;;;;;15.05;100.00;100315.10;109071;1257;66077;-59
2023/08/22 04:34:33;;;;;;;10.40;3.80;;;;;;;15.11;100.00;100316.31;108958;1257;72533;-61
2023/08/22 04:37:21;;;;;;;11.60;4.60;;;;;;;15.19;100.00;100320.42;108947;1257;60388;-60
2023/08/22 04:40:09;;;;;;;10.20;4.60;;;;;;;15.25;100.00;100317.34;109009;1257;59039;-60
2023/08/22 04:43:03;;;;;;;9.60;4.30;;;;;;;15.30;100.00;100317.39;109002;1257;74031;-63
2023/08/22 04:45:52;;;;;;;9.60;4.40;;;;;;;15.34;100.00;100317.89;108935;1257;68870;-58
2023/08/22 04:48:38;;;;;;;9.70;4.10;;;;;;;15.42;100.00;100317.93;108948;1257;72564;-60
2023/08/22 04:51:25;;;;;;;11.60;4.40;;;;;;;15.47;100.00;100315.80;109056;1257;58934;-59
2023/08/22 04:54:11;;;;;;;10.90;4.90;;;;;;;15.56;100.00;100319.41;108981;1257;59098;-59
2023/08/22 04:56:58;;;;;;;9.70;4.30;;;;;;;15.67;100.00;100324.10;109042;1257;71930;-60
2023/08/22 04:59:44;;;;;;;13.10;5.00;;;;;;;15.78;100.00;100325.06;109072;1257;66043;-62
2023/08/22 05:02:31;;;;;;;10.50;4.50;;;;;;;15.89;100.00;100325.86;109039;1257;73515;-61
2023/08/22 05:05:17;;;;;;;11.20;4.70;;;;;;;15.95;100.00;100325.23;108974;1257;60368;-63
2023/08/22 05:08:04;;;;;;;9.90;4.80;;;;;;;16.01;100.00;100330.59;109051;1257;61981;-59
2023/08/22 05:10:50;;;;;;;10.00;4.20;;;;;;;16.06;100.00;100334.73;108997;1257;73791;-59
2023/08/22 05:13:37;;;;;;;11.90;4.60;;;;;;;16.10;100.00;100332.60;109055;1257;67575;-62
2023/08/22 05:16:23;;;;;;;9.80;4.70;;;;;;;16.15;100.00;100328.56;109087;1257;72781;-60
2023/08/22 05:19:10;;;;;;;9.40;3.80;;;;;;;16.22;100.00;100333.39;109035;1257;58521;-62
2023/08/22 05:21:56;;;;;;;11.30;4.40;;;;;;;16.28;100.00;100334.41;108916;1258;61249;-61
2023/08/22 05:24:43;;;;;;;10.70;4.00;;;;;;;16.35;100.00;100327.70;108989;1258;74077;-61
2023/08/22 05:27:31;;;;;;;9.10;4.20;;;;;;;16.45;100.00;100329.79;109019;1257;67703;-62
2023/08/22 05:30:18;;;;;;;9.30;4.10;;;;;;;16.58;100.00;100334.55;109015;1257;72580;-65
2023/08/22 05:33:05;;;;;;;8.70;3.60;;;;;;;16.71;100.00;100338.80;109012;1257;59422;-62
2023/08/22 05:35:52;;;;;;;8.90;3.50;;;;;;;16.83;99.50;100327.23;108980;1257;59881;-61
2023/08/22 05:38:39;;;;;;;9.00;3.40;;;;;;;16.90;98.96;100318.50;109036;1257;73717;-61
2023/08/22 05:41:25;;;;;;;8.60;3.60;;;;;;;17.01;98.29;100320.48;109054;1257;67771;-61
2023/08/22 05:44:12;;;;;;;8.20;3.30;;;;;;;17.15;96.97;100318.02;108991;1259;73601;-63
2023/08/22 05:46:58;;;;;;;8.90;3.30;;;;;;;17.52;95.27;100330.85;109011;1257;59572;-61
2023/08/22 05:49:46;;;;;;;9.60;3.20;;;;;;;18.27;91.76;100337.15;108956;1258;61386;-61
2023/08/22 05:52:33;;;;;;;7.00;2.70;;;;;;;19.13;87.59;100335.51;108973;1259;73934;-61
2023/08/22 05:55:19;;;;;;;8.00;2.90;;;;;;;19.97;82.94;100325.64;109059;1257;67629;-60
2023/08/22 05:58:06;;;;;;;6.70;2.40;;;;;;;20.93;79.51;100329.63;109023;1257;72566;-61
2023/08/22 06:00:52;;;;;;;7.60;2.60;;;;;;;21.62;76.17;100327.81;108975;1257;58998;-59
2023/08/22 06:03:39;;;;;;;7.60;2.20;;;;;;;22.15;72.29;100329.86;109075;1257;60310;-61
2023/08/22 06:06:26;;;;;;;8.50;2.40;;;;;;;22.36;70.22;100327.14;109070;1257;73764;-61
2023/08/22 06:09:12;;;;;;;6.50;2.20;;;;;;;22.28;69.09;100324.18;109041;1257;68201;-60
2023/08/22 06:11:59;;;;;;;7.30;2.10;;;;;;;21.81;69.59;100327.89;108991;1257;73492;-60
2023/08/22 06:14:45;;;;;;;7.50;2.40;;;;;;;21.83;70.79;100326.23;109062;1257;57921;-60
2023/08/22 06:17:32;;;;;;;6.80;2.40;;;;;;;22.36;69.15;100328.95;109096;1257;60213;-60
2023/08/22 06:20:18;;;;;;;7.20;2.20;;;;;;;23.05;66.56;100323.95;109034;1257;71959;-60
2023/08/22 06:23:05;;;;;;;6.60;2.50;;;;;;;23.71;64.28;100322.92;108992;1257;66801;-61
2023/08/22 06:25:52;;;;;;;6.20;1.70;;;;;;;24.34;61.05;100315.89;109094;1257;72686;-61
2023/08/22 06:28:38;;;;;;;9.60;2.20;;;;;;;24.96;58.75;100308.19;109078;1257;57539;-60
2023/08/22 06:31:26;;;;;;;7.70;2.00;;;;;;;25.60;56.78;100310.66;109086;1257;60145;-60
2023/08/22 06:34:13;;;;;;;6.30;1.70;;;;;;;26.07;54.50;100305.77;109086;1258;72951;-61
2023/08/22 06:36:59;;;;;;;9.30;1.90;;;;;;;26.67;52.56;100303.12;109025;1257;68758;-62
2023/08/22 06:39:45;;;;;;;7.20;1.60;;;;;;;27.21;50.25;100287.18;109011;1257;71303;-61
2023/08/22 06:42:32;;;;;;;6.10;1.30;;;;;;;27.71;47.52;100283.66;108931;1259;194182;-61
2023/08/22 06:45:25;;;;;;;6.30;1.40;;;;;;;28.19;46.37;100289.58;109109;1257;59038;-62
2023/08/22 06:48:11;;;;;;;6.40;1.30;;;;;;;28.60;45.37;100286.98;109073;1257;74153;-62
2023/08/22 06:50:57;;;;;;;7.70;1.50;;;;;;;28.45;44.50;100291.85;109112;1257;68709;-60
2023/08/22 06:53:44;;;;;;;6.00;1.30;;;;;;;28.51;44.46;100291.41;109087;1257;73221;-63
2023/08/22 06:56:30;;;;;;;7.00;1.50;;;;;;;28.44;44.75;100296.92;109058;1257;58706;-61
2023/08/22 06:59:16;;;;;;;8.60;1.60;;;;;;;28.20;45.30;100293.52;109088;1257;59063;-61
2023/08/22 07:02:03;;;;;;;7.60;1.60;;;;;;;27.85;46.14;100280.24;109084;1257;73310;-61
2023/08/22 07:04:50;;;;;;;7.60;1.40;;;;;;;27.33;46.10;100273.81;109127;1257;65993;-62
2023/08/22 07:07:38;;;;;;;7.50;1.40;;;;;;;26.77;46.19;100241.83;109096;1257;73633;-63
2023/08/22 07:10:24;;;;;;;6.80;1.50;;;;;;;26.16;47.26;100214.19;109064;1257;58041;-63
2023/08/22 07:13:10;;;;;;;8.70;1.40;;;;;;;25.32;48.01;100195.83;109041;1258;59185;-64
2023/08/22 07:15:56;;;;;;;6.20;1.30;;;;;;;24.63;49.46;100191.60;109113;1257;72492;-60
2023/08/22 07:18:43;;;;;;;6.40;1.40;;;;;;;24.05;50.88;100174.38;109096;1257;67754;-61
2023/08/22 07:21:29;;;;;;;8.20;1.50;;;;;;;23.51;53.13;100178.73;109078;1257;73905;-63
2023/08/22 07:24:15;;;;;;;6.60;1.30;;;;;;;23.25;54.87;100175.29;109061;1257;57667;-62
2023/08/22 07:27:01;;;;;;;6.70;1.70;;;;;;;22.91;55.37;100170.77;109106;1257;60888;-62
2023/08/22 07:29:47;;;;;;;6.00;1.70;;;;;;;22.55;55.89;100177.50;109058;1257;73876;-62
2023/08/22 07:32:34;;;;;;;6.90;1.80;;;;;;;22.32;57.44;100214.34;109018;1257;67893;-61
2023/08/22 07:35:20;;;;;;;6.60;2.00;;;;;;;22.40;58.07;100256.16;109055;1257;70332;-62
2023/08/22 07:38:06;;;;;;;9.00;1.70;;;;;;;22.56;57.62;100286.23;109088;1257;58992;-63
2023/08/22 07:40:53;;;;;;;10.20;4.20;;;;;;;22.74;57.92;100304.39;109084;1257;60211;-61
2023/08/22 07:43:39;;;;;;;11.20;4.70;;;;;;;22.77;57.80;100302.75;109061;1259;72816;-62
2023/08/22 07:46:26;;;;;;;8.00;2.10;;;;;;;22.92;58.22;100301.36;109142;1257;68758;-61
2023/08/22 07:49:12;;;;;;;8.50;1.70;;;;;;;23.13;57.81;100292.75;109104;1257;73554;-64
2023/08/22 07:51:58;;;;;;;5.90;1.50;;;;;;;23.36;57.25;100282.61;109116;1257;57353;-60
2023/08/22 07:54:44;;;;;;;7.20;1.80;;;;;;;23.53;57.16;100278.22;109095;1257;60195;-61
2023/08/22 07:57:31;;;;;;;7.70;1.80;;;;;;;23.97;55.09;100273.21;109071;1257;74041;-61
2023/08/22 08:00:18;;;;;;;8.20;1.80;;;;;;;24.75;51.86;100263.86;108979;1257;68674;-62
2023/08/22 08:03:05;;;;;;;7.30;1.40;;;;;;;25.36;49.55;100254.86;109058;1257;71277;-64
2023/08/22 08:05:51;;;;;;;6.90;1.20;;;;;;;25.72;46.71;100255.16;109105;1257;57367;-66
2023/08/22 08:08:37;;;;;;;6.70;1.70;;;;;;;26.00;46.13;100266.20;109065;1257;60159;-61
2023/08/22 08:11:23;;;;;;;6.60;1.50;;;;;;;26.01;43.89;100272.85;109098;1257;72817;-61
2023/08/22 08:14:11;;;;;;;7.00;1.40;;;;;;;25.88;43.54;100271.46;109080;1257;66777;-63
2023/08/22 08:16:58;;;;;;;6.70;1.60;;;;;;;25.83;43.84;100275.26;109061;1257;71198;-64
2023/08/22 08:19:45;;;;;;;5.20;1.20;;;;;;;25.82;44.68;100284.19;109046;1257;57369;-63
2023/08/22 08:22:31;;;;;;;6.90;1.30;;;;;;;26.15;44.62;100289.92;109058;1257;59558;-61
2023/08/22 08:25:16;;;;;;;6.80;1.70;;;;;;;26.46;44.05;100292.46;109066;1257;73094;-62
2023/08/22 08:28:06;;;;;;;5.80;1.50;;;;;;;26.59;42.84;100295.40;109096;1257;69283;-62
2023/08/22 08:30:53;;;;;;;7.40;1.50;;;;;;;26.57;43.06;100302.92;109069;1258;72812;-62
2023/08/22 08:33:39;;;;;;;5.90;1.30;;;;;;;26.57;42.77;100305.27;109035;1258;58056;-60
2023/08/22 08:36:26;;;;;;;6.40;1.40;;;;;;;26.30;43.45;100309.29;109031;1258;61226;-62
2023/08/22 08:39:13;;;;;;;6.70;1.50;;;;;;;26.01;44.44;100310.98;108945;1258;73203;-63
2023/08/22 08:42:12;;;;;;;8.20;1.40;;;;;;;25.70;45.84;100308.98;108998;1258;67983;-62
2023/08/22 08:44:58;;;;;;;7.40;1.60;;;;;;;25.30;47.32;100316.21;109009;1258;73583;-62
2023/08/22 08:47:46;;;;;;;7.20;1.50;;;;;;;24.90;48.48;100308.81;108955;1258;57824;-65
2023/08/22 08:50:37;;;;;;;6.00;1.30;;;;;;;24.54;49.18;100296.30;108996;1257;59899;-62
2023/08/22 08:53:23;;;;;;;7.20;1.70;;;;;;;24.23;49.61;100297.09;109006;1257;74046;-63
2023/08/22 08:56:11;;;;;;;7.10;1.80;;;;;;;23.93;50.41;100295.02;108993;1258;67804;-64
2023/08/22 08:58:57;;;;;;;9.40;4.00;;;;;;;23.61;51.13;100292.32;108974;1258;72409;-60
2023/08/22 09:01:45;;;;;;;7.90;2.10;;;;;;;23.48;51.83;100295.61;108954;1258;57290;-63
2023/08/22 09:04:31;;;;;;;12.90;5.00;;;;;;;23.17;51.01;100296.58;109031;1258;58889;-62
2023/08/22 09:07:18;;;;;;;7.50;3.00;;;;;;;22.93;51.93;100296.44;109039;1258;71785;-62
2023/08/22 09:10:07;;;;;;;8.80;3.40;;;;;;;22.78;52.57;100295.17;109021;1258;67594;-64
2023/08/22 09:12:53;;;;;;;7.30;1.70;;;;;;;22.69;52.73;100300.96;108929;1258;72643;-62
2023/08/22 09:15:42;;;;;;;7.10;2.00;;;;;;;22.77;52.51;100293.13;108984;1258;57947;-63
2023/08/22 09:18:28;;;;;;;7.90;2.50;;;;;;;22.84;52.79;100296.19;109032;1258;60234;-61
2023/08/22 09:21:17;;;;;;;8.30;2.30;;;;;;;22.98;52.83;100300.49;109001;1258;72765;-63
2023/08/22 09:24:08;;;;;;;7.20;1.80;;;;;;;23.12;52.44;100294.02;108985;1258;67633;-62
2023/08/22 09:26:56;;;;;;;6.10;1.50;;;;;;;23.43;52.37;100301.84;108961;1258;71341;-62
2023/08/22 09:29:42;;;;;;;7.10;1.60;;;;;;;23.78;50.74;100305.98;108946;1258;57745;-61
2023/08/22 09:32:28;;;;;;;6.50;1.50;;;;;;;23.91;50.22;100300.08;108990;1258;58848;-62
2023/08/22 09:35:17;;;;;;;8.20;1.60;;;;;;;23.95;50.36;100296.96;108959;1258;73854;-62
2023/08/22 09:38:08;;;;;;;7.50;1.40;;;;;;;24.40;49.43;100292.20;108974;1258;67858;-63
2023/08/22 09:40:56;;;;;;;7.00;1.50;;;;;;;25.70;46.37;100285.46;109008;1258;72197;-65
2023/08/22 09:43:43;;;;;;;7.20;1.50;;;;;;;27.23;43.01;100281.66;108986;1259;58916;-62
2023/08/22 09:46:31;;;;;;;5.60;1.40;;;;;;;28.35;39.69;100282.96;108977;1258;58658;-65
2023/08/22 09:49:18;;;;;;;6.70;1.50;;;;;;;29.31;37.91;100277.29;108971;1258;71615;-62
2023/08/22 09:52:05;;;;;;;7.10;1.40;;;;;;;30.13;35.77;100276.07;109033;1258;68745;-61
2023/08/22 09:54:52;;;;;;;5.60;1.10;;;;;;;30.61;34.09;100265.38;109008;1258;73829;-63
2023/08/22 09:57:39;;;;;;;6.30;1.20;;;;;;;31.17;33.63;100252.38;108987;1258;57692;-65
2023/08/22 10:00:30;;;;;;;7.30;1.50;;;;;;;31.40;32.60;100242.66;108986;1258;60031;-62
2023/08/22 10:03:18;;;;;;;6.60;1.20;;;;;;;31.77;32.36;100242.66;108998;1260;72914;-64
2023/08/22 10:06:05;;;;;;;8.00;1.40;;;;;;;32.34;30.62;100237.90;108982;1258;68754;-65
2023/08/22 10:08:51;;;;;;;11.40;4.70;;;;;;;32.74;30.28;100231.07;108979;1258;73376;-62
2023/08/22 10:11:53;;;;;;;8.80;1.60;;;;;;;32.92;30.27;100227.02;108985;1258;57360;-61
2023/08/22 10:14:45;;;;;;;6.00;1.30;;;;;;;32.71;29.64;100228.60;108986;1258;60245;-60
2023/08/22 10:17:32;;;;;;;5.80;1.00;;;;;;;32.36;29.34;100224.70;109032;1258;72886;-64
2023/08/22 10:20:18;;;;;;;5.60;1.00;;;;;;;31.65;29.26;100228.52;108987;1258;68778;-62
2023/08/22 10:23:05;;;;;;;5.30;1.10;;;;;;;31.13;30.60;100224.69;109019;1258;73742;-63
2023/08/22 10:25:53;;;;;;;7.20;1.20;;;;;;;31.47;30.44;100222.52;108995;1260;58154;-64
2023/08/22 10:28:43;;;;;;;6.20;1.20;;;;;;;31.84;29.44;100223.56;109030;1258;61460;-62
2023/08/22 10:31:29;;;;;;;5.00;1.00;;;;;;;31.91;29.13;100224.35;109029;1258;72717;-64
2023/08/22 10:34:16;;;;;;;5.00;1.10;;;;;;;31.92;28.41;100227.45;109081;1258;66440;-64
2023/08/22 10:37:03;;;;;;;5.90;1.00;;;;;;;31.97;28.68;100224.48;109036;1258;74014;-63
2023/08/22 10:39:50;;;;;;;7.00;1.00;;;;;;;32.18;28.77;100222.10;109046;1258;57334;-63
2023/08/22 10:42:36;;;;;;;8.50;1.20;;;;;;;32.21;28.99;100217.45;109016;1258;60362;-63
2023/08/22 10:45:22;;;;;;;5.10;0.90;;;;;;;32.26;28.22;100216.90;109028;1258;73288;-63
2023/08/22 10:48:12;;;;;;;6.00;0.90;;;;;;;32.05;28.86;100218.02;109012;1258;68959;-62
2023/08/22 10:51:07;;;;;;;5.10;1.10;;;;;;;31.94;28.58;100214.32;108977;1258;72653;-63
2023/08/22 10:53:58;;;;;;;4.70;0.90;;;;;;;31.92;29.05;100220.62;108973;1258;57372;-61
2023/08/22 10:56:44;;;;;;;6.40;1.20;;;;;;;32.06;28.20;100218.81;109000;1258;58949;-62
2023/08/22 10:59:30;;;;;;;6.30;1.20;;;;;;;32.42;27.31;100221.23;108965;1258;73284;-64
2023/08/22 11:02:17;;;;;;;5.60;1.10;;;;;;;32.48;26.79;100221.23;109105;1257;69236;-63
2023/08/22 11:05:11;;;;;;;6.10;1.10;;;;;;;32.29;27.19;100220.66;109045;1257;73755;-63
2023/08/22 11:07:57;;;;;;;6.40;1.10;;;;;;;32.47;28.25;100221.71;109091;1257;59020;-62
2023/08/22 11:10:45;;;;;;;5.10;1.00;;;;;;;32.82;27.40;100218.45;109090;1257;61250;-61
2023/08/22 11:13:41;;;;;;;5.70;1.10;;;;;;;33.25;27.17;100214.01;109098;1257;73117;-66
2023/08/22 11:16:28;;;;;;;5.80;1.10;;;;;;;33.41;26.22;100213.27;109083;1257;69109;-62
2023/08/22 11:19:18;;;;;;;5.60;1.10;;;;;;;32.81;27.22;100208.35;109062;1258;72508;-63
2023/08/22 11:22:09;;;;;;;5.50;1.10;;;;;;;32.42;27.48;100206.91;109010;1257;58401;-61
2023/08/22 11:24:56;;;;;;;5.40;1.10;;;;;;;31.89;27.59;100203.98;109062;1257;58637;-63
2023/08/22 11:27:42;;;;;;;5.60;1.10;;;;;;;31.72;27.89;100201.04;109057;1257;72800;-62
2023/08/22 11:30:28;;;;;;;5.50;1.10;;;;;;;31.45;27.82;100197.82;109015;1257;69790;-61
2023/08/22 11:33:20;;;;;;;5.40;1.10;;;;;;;30.84;29.11;100201.91;109059;1257;73107;-61
2023/08/22 11:36:07;;;;;;;5.50;1.30;;;;;;;30.91;29.90;100199.27;109053;1257;59132;-60
2023/08/22 11:38:53;;;;;;;6.80;1.20;;;;;;;30.81;30.36;100203.34;108989;1258;61350;-61
2023/08/22 11:41:40;;;;;;;6.50;1.30;;;;;;;30.76;30.24;100204.02;109026;1258;72831;-60
2023/08/22 11:44:26;;;;;;;4.70;1.10;;;;;;;30.74;29.96;100198.73;109022;1258;69290;-63
2023/08/22 11:47:12;;;;;;;8.20;1.20;;;;;;;30.37;30.88;100202.70;108972;1258;73404;-61
2023/08/22 11:50:06;;;;;;;6.00;1.10;;;;;;;30.13;31.18;100203.64;108987;1258;58796;-61
2023/08/22 11:52:58;;;;;;;6.50;1.40;;;;;;;30.03;31.03;100204.45;109025;1257;58940;-63
2023/08/22 11:55:49;;;;;;;6.10;2.00;;;;;;;30.03;30.90;100200.10;108992;1258;72801;-63
2023/08/22 11:58:42;;;;;;;9.10;1.40;;;;;;;30.14;31.73;100189.02;109048;1257;68914;-62
2023/08/22 12:01:31;;;;;;;6.40;1.30;;;;;;;30.18;31.02;100191.31;109039;1257;72848;-60
2023/08/22 12:04:17;;;;;;;5.20;1.00;;;;;;;29.79;31.23;100192.04;108976;1257;57798;-61
2023/08/22 12:07:04;;;;;;;5.80;0.90;;;;;;;29.33;32.15;100184.01;109097;1257;60276;-61
2023/08/22 12:10:03;;;;;;;6.50;1.20;;;;;;;28.83;32.04;100186.86;109066;1257;71781;-62
2023/08/22 12:12:50;;;;;;;6.60;1.70;;;;;;;28.54;32.85;100176.98;109037;1261;67865;-61
2023/08/22 12:15:39;;;;;;;6.70;1.30;;;;;;;28.29;33.50;100178.55;109018;1258;71359;-64
2023/08/22 12:18:32;;;;;;;8.20;1.20;;;;;;;27.94;33.33;100174.27;108986;1258;57751;-59
2023/08/22 12:21:19;;;;;;;9.20;1.40;;;;;;;27.34;34.50;100182.14;108964;1257;60259;-63
2023/08/22 12:24:06;;;;;;;7.30;1.20;;;;;;;27.06;35.51;100183.67;109087;1257;74102;-61
2023/08/22 12:26:52;;;;;;;5.40;1.20;;;;;;;26.92;35.52;100182.72;109022;1258;69160;-61
2023/08/22 12:29:40;;;;;;;6.10;1.60;;;;;;;26.93;35.40;100175.57;109139;1257;73354;-62
2023/08/22 12:32:26;;;;;;;5.70;1.30;;;;;;;26.79;35.80;100178.80;109023;1258;57990;-60
2023/08/22 12:35:13;;;;;;;5.80;1.50;;;;;;;26.66;36.12;100177.05;109071;1257;60186;-62
2023/08/22 12:38:00;;;;;;;5.60;1.20;;;;;;;26.45;36.56;100183.08;109012;1260;74024;-62
2023/08/22 12:40:46;;;;;;;6.60;1.50;;;;;;;26.24;36.83;100185.11;109103;1257;67913;-62
2023/08/22 12:43:32;;;;;;;5.90;1.30;;;;;;;26.03;36.39;100184.39;109067;1257;72839;-64